sensor_id;sensor_type;location;lat;lon;timestamp;temperature;humidity
10129;DHT22;5104;50.720;7.044;2024-01-15T00:00:15;2.40;99.90
10129;DHT22;5104;50.720;7.044;2024-01-15T00:02:43;2.40;99.90
10129;DHT22;5104;50.720;7.044;2024-01-15T00:05:10;2.40;99.90
10129;DHT22;5104;50.720;7.044;2024-01-15T00:07:37;2.50;99.90
10129;DHT22;5104;50.720;7.044;2024-01-15T00:10:04;2.50;99.90
10129;DHT22;5104;50.720;7.044;2024-01-15T00:12:31;2.50;99.90
10129;DHT22;5104;50.720;7.044;2024-01-15T00:14:58;2.50;99.90
10129;DHT22;5104;50.720;7.044;2024-01-15T00:17:25;2.60;99.90
10129;DHT22;5104;50.720;7.044;2024-01-15T00:19:53;2.60;99.90
10129;DHT22;5104;50.720;7.044;2024-01-15T00:22:20;2.60;99.90
10129;DHT22;5104;50.720;7.044;2024-01-15T00:24:47;2.50;99.90
10129;DHT22;5104;50.720;7.044;2024-01-15T00:27:14;2.40;1.00
10129;DHT22;5104;50.720;7.044;2024-01-15T00:29:41;2.40;1.00
10129;DHT22;5104;50.720;7.044;2024-01-15T00:32:08;2.30;98.60
10129;DHT22;5104;50.720;7.044;2024-01-15T00:34:35;2.10;1.00
10129;DHT22;5104;50.720;7.044;2024-01-15T00:37:03;2.10;1.00
10129;DHT22;5104;50.720;7.044;2024-01-15T00:39:32;2.10;99.90
10129;DHT22;5104;50.720;7.044;2024-01-15T00:41:59;2.00;99.90
10129;DHT22;5104;50.720;7.044;2024-01-15T00:44:26;2.00;99.90
10129;DHT22;5104;50.720;7.044;2024-01-15T00:46:53;2.00;99.90
10129;DHT22;5104;50.720;7.044;2024-01-15T00:49:20;2.00;1.00
10129;DHT22;5104;50.720;7.044;2024-01-15T00:51:47;1.90;1.00
10129;DHT22;5104;50.720;7.044;2024-01-15T00:54:15;1.90;99.90
10129;DHT22;5104;50.720;7.044;2024-01-15T00:56:42;1.80;1.00
10129;DHT22;5104;50.720;7.044;2024-01-15T00:59:09;1.80;1.00
10129;DHT22;5104;50.720;7.044;2024-01-15T01:01:40;1.70;99.90
10129;DHT22;5104;50.720;7.044;2024-01-15T01:04:08;1.70;1.00
10129;DHT22;5104;50.720;7.044;2024-01-15T01:06:35;1.70;99.90
10129;DHT22;5104;50.720;7.044;2024-01-15T01:09:02;1.70;1.00
10129;DHT22;5104;50.720;7.044;2024-01-15T01:11:30;1.80;23.40
10129;DHT22;5104;50.720;7.044;2024-01-15T01:13:57;1.80;1.00
10129;DHT22;5104;50.720;7.044;2024-01-15T01:16:24;1.90;1.00
10129;DHT22;5104;50.720;7.044;2024-01-15T01:18:51;1.80;99.90
10129;DHT22;5104;50.720;7.044;2024-01-15T01:21:18;1.90;99.90
10129;DHT22;5104;50.720;7.044;2024-01-15T01:23:44;1.90;1.00
10129;DHT22;5104;50.720;7.044;2024-01-15T01:26:15;2.00;90.60
10129;DHT22;5104;50.720;7.044;2024-01-15T01:28:43;2.00;1.00
10129;DHT22;5104;50.720;7.044;2024-01-15T01:31:10;2.00;1.00
10129;DHT22;5104;50.720;7.044;2024-01-15T01:33:38;2.00;99.90
10129;DHT22;5104;50.720;7.044;2024-01-15T01:36:07;2.00;99.90
10129;DHT22;5104;50.720;7.044;2024-01-15T01:38:34;2.00;99.90
10129;DHT22;5104;50.720;7.044;2024-01-15T01:41:01;2.00;1.00
10129;DHT22;5104;50.720;7.044;2024-01-15T01:43:28;1.90;1.00
10129;DHT22;5104;50.720;7.044;2024-01-15T01:45:57;1.90;99.90
10129;DHT22;5104;50.720;7.044;2024-01-15T01:48:24;1.90;99.90
10129;DHT22;5104;50.720;7.044;2024-01-15T01:50:52;1.90;1.00
10129;DHT22;5104;50.720;7.044;2024-01-15T01:53:19;1.90;1.00
10129;DHT22;5104;50.720;7.044;2024-01-15T01:55:47;1.90;99.90
10129;DHT22;5104;50.720;7.044;2024-01-15T01:58:15;1.90;99.90
10129;DHT22;5104;50.720;7.044;2024-01-15T02:00:42;1.90;99.90
10129;DHT22;5104;50.720;7.044;2024-01-15T02:03:11;2.00;25.70
10129;DHT22;5104;50.720;7.044;2024-01-15T02:05:39;2.00;1.00
10129;DHT22;5104;50.720;7.044;2024-01-15T02:08:06;2.00;99.90
10129;DHT22;5104;50.720;7.044;2024-01-15T02:10:33;2.00;99.90
10129;DHT22;5104;50.720;7.044;2024-01-15T02:13:00;2.00;99.90
10129;DHT22;5104;50.720;7.044;2024-01-15T02:15:27;2.00;99.90
10129;DHT22;5104;50.720;7.044;2024-01-15T02:17:58;2.00;99.90
10129;DHT22;5104;50.720;7.044;2024-01-15T02:20:26;2.10;99.90
10129;DHT22;5104;50.720;7.044;2024-01-15T02:22:53;2.10;80.80
10129;DHT22;5104;50.720;7.044;2024-01-15T02:25:22;2.10;99.90
10129;DHT22;5104;50.720;7.044;2024-01-15T02:27:49;2.10;99.90
10129;DHT22;5104;50.720;7.044;2024-01-15T02:30:16;2.00;1.00
10129;DHT22;5104;50.720;7.044;2024-01-15T02:32:43;2.00;1.00
10129;DHT22;5104;50.720;7.044;2024-01-15T02:35:10;2.00;99.90
10129;DHT22;5104;50.720;7.044;2024-01-15T02:37:37;2.00;99.90
10129;DHT22;5104;50.720;7.044;2024-01-15T02:40:04;2.00;99.90
10129;DHT22;5104;50.720;7.044;2024-01-15T02:42:33;2.00;99.90
10129;DHT22;5104;50.720;7.044;2024-01-15T02:45:00;2.00;99.90
10129;DHT22;5104;50.720;7.044;2024-01-15T02:47:27;1.90;99.90
10129;DHT22;5104;50.720;7.044;2024-01-15T02:49:53;1.90;99.90
10129;DHT22;5104;50.720;7.044;2024-01-15T02:52:20;1.90;1.00
10129;DHT22;5104;50.720;7.044;2024-01-15T02:54:47;1.90;1.00
10129;DHT22;5104;50.720;7.044;2024-01-15T02:57:14;1.90;1.00
10129;DHT22;5104;50.720;7.044;2024-01-15T02:59:42;1.90;1.00
10129;DHT22;5104;50.720;7.044;2024-01-15T03:02:09;1.90;1.00
10129;DHT22;5104;50.720;7.044;2024-01-15T03:04:36;1.90;99.90
10129;DHT22;5104;50.720;7.044;2024-01-15T03:07:03;1.90;99.90
10129;DHT22;5104;50.720;7.044;2024-01-15T03:09:30;1.90;92.20
10129;DHT22;5104;50.720;7.044;2024-01-15T03:11:57;1.90;99.90
10129;DHT22;5104;50.720;7.044;2024-01-15T03:14:24;1.90;99.90
10129;DHT22;5104;50.720;7.044;2024-01-15T03:16:53;1.90;99.90
10129;DHT22;5104;50.720;7.044;2024-01-15T03:19:20;1.90;1.00
10129;DHT22;5104;50.720;7.044;2024-01-15T03:21:47;1.90;56.70
10129;DHT22;5104;50.720;7.044;2024-01-15T03:24:13;1.90;1.00
10129;DHT22;5104;50.720;7.044;2024-01-15T03:26:40;1.90;1.00
10129;DHT22;5104;50.720;7.044;2024-01-15T03:29:07;2.00;1.60
10129;DHT22;5104;50.720;7.044;2024-01-15T03:31:34;1.90;42.50
10129;DHT22;5104;50.720;7.044;2024-01-15T03:34:02;1.90;99.90
10129;DHT22;5104;50.720;7.044;2024-01-15T03:36:29;1.90;99.90
10129;DHT22;5104;50.720;7.044;2024-01-15T03:38:56;1.90;99.90
10129;DHT22;5104;50.720;7.044;2024-01-15T03:41:23;1.90;99.90
10129;DHT22;5104;50.720;7.044;2024-01-15T03:43:50;1.90;99.90
10129;DHT22;5104;50.720;7.044;2024-01-15T03:46:17;1.90;99.90
10129;DHT22;5104;50.720;7.044;2024-01-15T03:48:44;1.90;1.00
10129;DHT22;5104;50.720;7.044;2024-01-15T03:51:12;1.90;1.00
10129;DHT22;5104;50.720;7.044;2024-01-15T03:53:39;1.90;1.00
10129;DHT22;5104;50.720;7.044;2024-01-15T03:56:06;1.90;1.00
10129;DHT22;5104;50.720;7.044;2024-01-15T03:58:33;1.90;1.00
10129;DHT22;5104;50.720;7.044;2024-01-15T04:01:00;1.90;1.00
10129;DHT22;5104;50.720;7.044;2024-01-15T04:03:26;1.90;1.00
10129;DHT22;5104;50.720;7.044;2024-01-15T04:05:53;1.90;1.00
10129;DHT22;5104;50.720;7.044;2024-01-15T04:08:22;1.90;1.00
10129;DHT22;5104;50.720;7.044;2024-01-15T04:10:48;1.90;99.90
10129;DHT22;5104;50.720;7.044;2024-01-15T04:13:15;1.90;99.90
10129;DHT22;5104;50.720;7.044;2024-01-15T04:15:42;1.90;99.90
10129;DHT22;5104;50.720;7.044;2024-01-15T04:18:09;1.90;99.90
10129;DHT22;5104;50.720;7.044;2024-01-15T04:20:36;1.90;99.90
10129;DHT22;5104;50.720;7.044;2024-01-15T04:23:04;1.90;99.90
10129;DHT22;5104;50.720;7.044;2024-01-15T04:25:32;1.90;99.90
10129;DHT22;5104;50.720;7.044;2024-01-15T04:27:59;1.90;99.90
10129;DHT22;5104;50.720;7.044;2024-01-15T04:30:26;1.90;81.80
10129;DHT22;5104;50.720;7.044;2024-01-15T04:32:53;1.90;99.90
10129;DHT22;5104;50.720;7.044;2024-01-15T04:35:19;1.90;99.90
10129;DHT22;5104;50.720;7.044;2024-01-15T04:37:46;1.90;99.90
10129;DHT22;5104;50.720;7.044;2024-01-15T04:40:13;1.90;1.00
10129;DHT22;5104;50.720;7.044;2024-01-15T04:42:42;1.70;99.90
10129;DHT22;5104;50.720;7.044;2024-01-15T04:45:11;1.70;1.00
10129;DHT22;5104;50.720;7.044;2024-01-15T04:47:38;1.60;1.00
10129;DHT22;5104;50.720;7.044;2024-01-15T04:50:06;1.60;1.00
10129;DHT22;5104;50.720;7.044;2024-01-15T04:52:33;1.60;1.00
10129;DHT22;5104;50.720;7.044;2024-01-15T04:54:59;1.60;1.00
10129;DHT22;5104;50.720;7.044;2024-01-15T04:57:26;1.60;96.40
10129;DHT22;5104;50.720;7.044;2024-01-15T04:59:54;1.60;99.90
10129;DHT22;5104;50.720;7.044;2024-01-15T05:02:21;1.70;99.90
10129;DHT22;5104;50.720;7.044;2024-01-15T05:04:48;1.70;1.00
10129;DHT22;5104;50.720;7.044;2024-01-15T05:07:15;1.80;99.90
10129;DHT22;5104;50.720;7.044;2024-01-15T05:09:42;1.80;1.00
10129;DHT22;5104;50.720;7.044;2024-01-15T05:12:09;1.90;99.90
10129;DHT22;5104;50.720;7.044;2024-01-15T05:14:35;1.90;99.20
10129;DHT22;5104;50.720;7.044;2024-01-15T05:17:04;1.90;1.00
10129;DHT22;5104;50.720;7.044;2024-01-15T05:19:30;2.00;1.00
10129;DHT22;5104;50.720;7.044;2024-01-15T05:21:57;1.90;1.00
10129;DHT22;5104;50.720;7.044;2024-01-15T05:24:24;1.90;1.00
10129;DHT22;5104;50.720;7.044;2024-01-15T05:26:52;1.90;1.00
10129;DHT22;5104;50.720;7.044;2024-01-15T05:29:18;1.90;1.00
10129;DHT22;5104;50.720;7.044;2024-01-15T05:31:45;2.00;1.00
10129;DHT22;5104;50.720;7.044;2024-01-15T05:34:14;2.00;1.00
10129;DHT22;5104;50.720;7.044;2024-01-15T05:36:40;1.90;1.00
10129;DHT22;5104;50.720;7.044;2024-01-15T05:39:07;1.90;3.20
10129;DHT22;5104;50.720;7.044;2024-01-15T05:41:34;1.90;99.90
10129;DHT22;5104;50.720;7.044;2024-01-15T05:44:01;1.90;1.00
10129;DHT22;5104;50.720;7.044;2024-01-15T05:46:29;1.80;1.00
10129;DHT22;5104;50.720;7.044;2024-01-15T05:48:56;1.80;1.00
10129;DHT22;5104;50.720;7.044;2024-01-15T05:51:24;1.80;1.00
10129;DHT22;5104;50.720;7.044;2024-01-15T05:53:51;1.70;99.90
10129;DHT22;5104;50.720;7.044;2024-01-15T05:56:18;1.70;1.00
10129;DHT22;5104;50.720;7.044;2024-01-15T05:58:45;1.70;99.90
10129;DHT22;5104;50.720;7.044;2024-01-15T06:01:12;1.60;99.90
10129;DHT22;5104;50.720;7.044;2024-01-15T06:03:39;1.60;99.90
10129;DHT22;5104;50.720;7.044;2024-01-15T06:06:06;1.60;80.80
10129;DHT22;5104;50.720;7.044;2024-01-15T06:08:36;1.70;99.90
10129;DHT22;5104;50.720;7.044;2024-01-15T06:11:03;1.80;1.00
10129;DHT22;5104;50.720;7.044;2024-01-15T06:13:30;1.80;1.00
10129;DHT22;5104;50.720;7.044;2024-01-15T06:15:57;1.80;1.00
10129;DHT22;5104;50.720;7.044;2024-01-15T06:18:24;1.80;1.00
10129;DHT22;5104;50.720;7.044;2024-01-15T06:20:51;1.80;1.00
10129;DHT22;5104;50.720;7.044;2024-01-15T06:23:17;1.80;1.00
10129;DHT22;5104;50.720;7.044;2024-01-15T06:25:46;1.90;1.00
10129;DHT22;5104;50.720;7.044;2024-01-15T06:28:13;1.80;1.00
10129;DHT22;5104;50.720;7.044;2024-01-15T06:30:39;1.80;1.00
10129;DHT22;5104;50.720;7.044;2024-01-15T06:33:06;1.80;1.00
10129;DHT22;5104;50.720;7.044;2024-01-15T06:35:33;1.80;1.00
10129;DHT22;5104;50.720;7.044;2024-01-15T06:38:00;1.80;1.00
10129;DHT22;5104;50.720;7.044;2024-01-15T06:40:27;1.90;1.00
10129;DHT22;5104;50.720;7.044;2024-01-15T06:42:55;1.90;1.00
10129;DHT22;5104;50.720;7.044;2024-01-15T06:45:22;2.00;99.90
10129;DHT22;5104;50.720;7.044;2024-01-15T06:47:49;2.00;1.00
10129;DHT22;5104;50.720;7.044;2024-01-15T06:50:16;2.00;4.50
10129;DHT22;5104;50.720;7.044;2024-01-15T06:52:43;2.00;1.00
10129;DHT22;5104;50.720;7.044;2024-01-15T06:55:10;2.00;1.00
10129;DHT22;5104;50.720;7.044;2024-01-15T06:57:37;1.90;1.00
10129;DHT22;5104;50.720;7.044;2024-01-15T07:00:06;1.90;99.90
10129;DHT22;5104;50.720;7.044;2024-01-15T07:02:34;1.80;1.00
10129;DHT22;5104;50.720;7.044;2024-01-15T07:05:01;1.80;1.00
10129;DHT22;5104;50.720;7.044;2024-01-15T07:07:30;1.80;99.90
10129;DHT22;5104;50.720;7.044;2024-01-15T07:09:57;1.90;1.00
10129;DHT22;5104;50.720;7.044;2024-01-15T07:12:24;1.90;1.00
10129;DHT22;5104;50.720;7.044;2024-01-15T07:14:50;1.90;1.00
10129;DHT22;5104;50.720;7.044;2024-01-15T07:17:19;1.90;1.00
10129;DHT22;5104;50.720;7.044;2024-01-15T07:19:46;1.90;1.00
10129;DHT22;5104;50.720;7.044;2024-01-15T07:22:13;1.90;1.00
10129;DHT22;5104;50.720;7.044;2024-01-15T07:24:40;1.90;1.00
10129;DHT22;5104;50.720;7.044;2024-01-15T07:27:07;1.90;1.00
10129;DHT22;5104;50.720;7.044;2024-01-15T07:29:34;1.90;1.00
10129;DHT22;5104;50.720;7.044;2024-01-15T07:32:03;1.90;1.00
10129;DHT22;5104;50.720;7.044;2024-01-15T07:34:32;1.90;1.00
10129;DHT22;5104;50.720;7.044;2024-01-15T07:36:58;1.90;1.00
10129;DHT22;5104;50.720;7.044;2024-01-15T07:39:25;1.90;1.00
10129;DHT22;5104;50.720;7.044;2024-01-15T07:41:54;2.00;99.90
10129;DHT22;5104;50.720;7.044;2024-01-15T07:44:21;2.00;99.90
10129;DHT22;5104;50.720;7.044;2024-01-15T07:46:48;2.00;99.90
10129;DHT22;5104;50.720;7.044;2024-01-15T07:49:15;2.00;35.70
10129;DHT22;5104;50.720;7.044;2024-01-15T07:51:43;2.00;54.90
10129;DHT22;5104;50.720;7.044;2024-01-15T07:54:10;2.00;99.90
10129;DHT22;5104;50.720;7.044;2024-01-15T07:56:53;2.00;1.00
10129;DHT22;5104;50.720;7.044;2024-01-15T07:59:20;2.00;1.00
10129;DHT22;5104;50.720;7.044;2024-01-15T08:01:47;2.10;1.00
10129;DHT22;5104;50.720;7.044;2024-01-15T08:04:14;2.10;1.00
10129;DHT22;5104;50.720;7.044;2024-01-15T08:06:41;2.10;1.00
10129;DHT22;5104;50.720;7.044;2024-01-15T08:09:09;2.10;1.00
10129;DHT22;5104;50.720;7.044;2024-01-15T08:11:36;2.20;25.60
10129;DHT22;5104;50.720;7.044;2024-01-15T08:14:05;2.20;1.00
10129;DHT22;5104;50.720;7.044;2024-01-15T08:16:32;2.20;1.00
10129;DHT22;5104;50.720;7.044;2024-01-15T08:18:59;2.30;99.90
10129;DHT22;5104;50.720;7.044;2024-01-15T08:21:26;2.30;1.00
10129;DHT22;5104;50.720;7.044;2024-01-15T08:23:55;2.40;99.90
10129;DHT22;5104;50.720;7.044;2024-01-15T08:26:24;2.40;99.90
10129;DHT22;5104;50.720;7.044;2024-01-15T08:28:51;2.50;1.00
10129;DHT22;5104;50.720;7.044;2024-01-15T08:31:18;2.50;1.00
10129;DHT22;5104;50.720;7.044;2024-01-15T08:33:45;2.50;1.00
10129;DHT22;5104;50.720;7.044;2024-01-15T08:36:12;2.50;1.00
10129;DHT22;5104;50.720;7.044;2024-01-15T08:38:39;2.60;99.90
10129;DHT22;5104;50.720;7.044;2024-01-15T08:41:06;2.60;73.40
10129;DHT22;5104;50.720;7.044;2024-01-15T08:43:35;2.70;1.00
10129;DHT22;5104;50.720;7.044;2024-01-15T08:46:02;2.70;1.00
10129;DHT22;5104;50.720;7.044;2024-01-15T08:48:29;2.80;1.00
10129;DHT22;5104;50.720;7.044;2024-01-15T08:50:56;2.80;99.90
10129;DHT22;5104;50.720;7.044;2024-01-15T08:53:23;2.90;64.90
10129;DHT22;5104;50.720;7.044;2024-01-15T08:55:50;2.90;99.90
10129;DHT22;5104;50.720;7.044;2024-01-15T08:58:17;2.90;1.00
10129;DHT22;5104;50.720;7.044;2024-01-15T09:00:45;2.90;1.00
10129;DHT22;5104;50.720;7.044;2024-01-15T09:03:12;2.90;1.00
10129;DHT22;5104;50.720;7.044;2024-01-15T09:05:40;2.90;1.00
10129;DHT22;5104;50.720;7.044;2024-01-15T09:08:08;2.90;1.00
10129;DHT22;5104;50.720;7.044;2024-01-15T09:10:35;3.00;1.00
10129;DHT22;5104;50.720;7.044;2024-01-15T09:13:02;3.00;99.90
10129;DHT22;5104;50.720;7.044;2024-01-15T09:15:30;3.00;99.90
10129;DHT22;5104;50.720;7.044;2024-01-15T09:17:59;3.00;99.90
10129;DHT22;5104;50.720;7.044;2024-01-15T09:20:27;3.00;99.90
10129;DHT22;5104;50.720;7.044;2024-01-15T09:22:54;3.10;1.00
10129;DHT22;5104;50.720;7.044;2024-01-15T09:25:21;3.20;1.00
10129;DHT22;5104;50.720;7.044;2024-01-15T09:27:48;3.20;99.90
10129;DHT22;5104;50.720;7.044;2024-01-15T09:30:15;3.20;36.00
10129;DHT22;5104;50.720;7.044;2024-01-15T09:32:42;3.30;63.50
10129;DHT22;5104;50.720;7.044;2024-01-15T09:35:10;3.30;27.00
10129;DHT22;5104;50.720;7.044;2024-01-15T09:37:39;3.30;92.10
10129;DHT22;5104;50.720;7.044;2024-01-15T09:40:08;3.20;99.90
10129;DHT22;5104;50.720;7.044;2024-01-15T09:42:39;3.20;99.90
10129;DHT22;5104;50.720;7.044;2024-01-15T09:45:07;3.10;99.90
10129;DHT22;5104;50.720;7.044;2024-01-15T09:47:36;3.00;1.00
10129;DHT22;5104;50.720;7.044;2024-01-15T09:50:04;3.00;1.00
10129;DHT22;5104;50.720;7.044;2024-01-15T09:52:33;2.90;1.00
10129;DHT22;5104;50.720;7.044;2024-01-15T09:55:02;2.80;99.90
10129;DHT22;5104;50.720;7.044;2024-01-15T09:57:31;2.70;1.00
10129;DHT22;5104;50.720;7.044;2024-01-15T09:59:59;2.50;99.90
10129;DHT22;5104;50.720;7.044;2024-01-15T10:02:29;2.40;1.00
10129;DHT22;5104;50.720;7.044;2024-01-15T10:04:57;2.40;1.00
10129;DHT22;5104;50.720;7.044;2024-01-15T10:07:25;2.40;99.90
10129;DHT22;5104;50.720;7.044;2024-01-15T10:09:55;2.30;1.00
10129;DHT22;5104;50.720;7.044;2024-01-15T10:12:22;2.30;99.90
10129;DHT22;5104;50.720;7.044;2024-01-15T10:14:50;2.10;99.90
10129;DHT22;5104;50.720;7.044;2024-01-15T10:17:17;2.00;99.90
10129;DHT22;5104;50.720;7.044;2024-01-15T10:19:45;2.00;1.00
10129;DHT22;5104;50.720;7.044;2024-01-15T10:22:13;2.10;1.00
10129;DHT22;5104;50.720;7.044;2024-01-15T10:24:41;2.20;1.00
10129;DHT22;5104;50.720;7.044;2024-01-15T10:27:10;2.20;99.90
10129;DHT22;5104;50.720;7.044;2024-01-15T10:29:37;2.20;99.90
10129;DHT22;5104;50.720;7.044;2024-01-15T10:32:06;2.20;1.00
10129;DHT22;5104;50.720;7.044;2024-01-15T10:34:37;2.20;1.00
10129;DHT22;5104;50.720;7.044;2024-01-15T10:37:04;2.30;99.90
10129;DHT22;5104;50.720;7.044;2024-01-15T10:39:32;2.30;99.90
10129;DHT22;5104;50.720;7.044;2024-01-15T10:41:59;2.30;1.00
10129;DHT22;5104;50.720;7.044;2024-01-15T10:44:27;2.40;99.90
10129;DHT22;5104;50.720;7.044;2024-01-15T10:46:55;2.40;1.00
10129;DHT22;5104;50.720;7.044;2024-01-15T10:49:23;2.50;1.00
10129;DHT22;5104;50.720;7.044;2024-01-15T10:51:53;2.50;99.90
10129;DHT22;5104;50.720;7.044;2024-01-15T10:54:21;2.50;1.00
10129;DHT22;5104;50.720;7.044;2024-01-15T10:56:50;2.60;1.00
10129;DHT22;5104;50.720;7.044;2024-01-15T10:59:20;2.60;99.90
10129;DHT22;5104;50.720;7.044;2024-01-15T11:01:51;2.50;1.00
10129;DHT22;5104;50.720;7.044;2024-01-15T11:04:19;2.50;1.00
10129;DHT22;5104;50.720;7.044;2024-01-15T11:06:50;2.50;1.00
10129;DHT22;5104;50.720;7.044;2024-01-15T11:09:17;2.30;1.00
10129;DHT22;5104;50.720;7.044;2024-01-15T11:11:45;2.20;99.90
10129;DHT22;5104;50.720;7.044;2024-01-15T11:14:34;2.20;1.00
10129;DHT22;5104;50.720;7.044;2024-01-15T11:17:03;2.00;90.30
10129;DHT22;5104;50.720;7.044;2024-01-15T11:19:43;2.00;99.90
10129;DHT22;5104;50.720;7.044;2024-01-15T11:25:02;2.00;99.90
10129;DHT22;5104;50.720;7.044;2024-01-15T11:27:40;2.00;1.00
10129;DHT22;5104;50.720;7.044;2024-01-15T11:30:08;2.00;1.00
10129;DHT22;5104;50.720;7.044;2024-01-15T11:32:38;2.00;1.00
10129;DHT22;5104;50.720;7.044;2024-01-15T11:35:07;2.10;99.90
10129;DHT22;5104;50.720;7.044;2024-01-15T11:37:58;2.10;99.90
10129;DHT22;5104;50.720;7.044;2024-01-15T11:40:41;2.20;1.00
10129;DHT22;5104;50.720;7.044;2024-01-15T11:43:10;2.20;98.20
10129;DHT22;5104;50.720;7.044;2024-01-15T11:45:39;2.20;1.00
10129;DHT22;5104;50.720;7.044;2024-01-15T11:48:12;2.20;1.00
10129;DHT22;5104;50.720;7.044;2024-01-15T11:50:43;2.20;1.00
10129;DHT22;5104;50.720;7.044;2024-01-15T11:53:17;2.10;1.00
10129;DHT22;5104;50.720;7.044;2024-01-15T11:55:45;2.20;1.00
10129;DHT22;5104;50.720;7.044;2024-01-15T11:58:14;2.30;1.00
10129;DHT22;5104;50.720;7.044;2024-01-15T12:00:43;2.30;1.00
10129;DHT22;5104;50.720;7.044;2024-01-15T12:03:12;2.50;1.00
10129;DHT22;5104;50.720;7.044;2024-01-15T12:05:40;2.60;99.90
10129;DHT22;5104;50.720;7.044;2024-01-15T12:08:08;2.70;1.00
10129;DHT22;5104;50.720;7.044;2024-01-15T12:10:36;2.70;99.90
10129;DHT22;5104;50.720;7.044;2024-01-15T12:13:06;2.80;44.50
10129;DHT22;5104;50.720;7.044;2024-01-15T12:15:36;2.80;1.00
10129;DHT22;5104;50.720;7.044;2024-01-15T12:18:04;2.70;1.00
10129;DHT22;5104;50.720;7.044;2024-01-15T12:20:32;2.70;99.90
10129;DHT22;5104;50.720;7.044;2024-01-15T12:23:00;2.70;99.90
10129;DHT22;5104;50.720;7.044;2024-01-15T12:25:29;2.70;99.90
10129;DHT22;5104;50.720;7.044;2024-01-15T12:27:57;2.70;99.90
10129;DHT22;5104;50.720;7.044;2024-01-15T12:30:26;2.70;99.90
10129;DHT22;5104;50.720;7.044;2024-01-15T12:32:53;2.80;1.00
10129;DHT22;5104;50.720;7.044;2024-01-15T12:35:21;2.80;1.00
10129;DHT22;5104;50.720;7.044;2024-01-15T12:37:49;2.90;1.00
10129;DHT22;5104;50.720;7.044;2024-01-15T12:40:19;2.80;99.90
10129;DHT22;5104;50.720;7.044;2024-01-15T12:42:46;2.90;91.70
10129;DHT22;5104;50.720;7.044;2024-01-15T12:45:13;3.00;1.00
10129;DHT22;5104;50.720;7.044;2024-01-15T12:47:41;3.00;99.90
10129;DHT22;5104;50.720;7.044;2024-01-15T12:50:09;3.10;23.30
10129;DHT22;5104;50.720;7.044;2024-01-15T12:52:37;3.20;1.00
10129;DHT22;5104;50.720;7.044;2024-01-15T12:55:06;3.40;1.00
10129;DHT22;5104;50.720;7.044;2024-01-15T12:57:35;3.40;99.90
10129;DHT22;5104;50.720;7.044;2024-01-15T13:00:02;3.40;99.90
10129;DHT22;5104;50.720;7.044;2024-01-15T13:02:32;3.40;99.90
10129;DHT22;5104;50.720;7.044;2024-01-15T13:04:59;3.50;99.90
10129;DHT22;5104;50.720;7.044;2024-01-15T13:07:26;3.50;99.90
10129;DHT22;5104;50.720;7.044;2024-01-15T13:09:53;3.40;99.90
10129;DHT22;5104;50.720;7.044;2024-01-15T13:12:22;3.30;1.00
10129;DHT22;5104;50.720;7.044;2024-01-15T13:14:49;3.30;1.00
10129;DHT22;5104;50.720;7.044;2024-01-15T13:17:15;3.30;63.90
10129;DHT22;5104;50.720;7.044;2024-01-15T13:19:42;3.40;1.00
10129;DHT22;5104;50.720;7.044;2024-01-15T13:22:09;3.50;1.00
10129;DHT22;5104;50.720;7.044;2024-01-15T13:24:39;3.60;1.00
10129;DHT22;5104;50.720;7.044;2024-01-15T13:27:06;3.60;1.00
10129;DHT22;5104;50.720;7.044;2024-01-15T13:29:34;3.60;99.90
10129;DHT22;5104;50.720;7.044;2024-01-15T13:32:02;3.70;1.00
10129;DHT22;5104;50.720;7.044;2024-01-15T13:34:30;3.60;99.90
10129;DHT22;5104;50.720;7.044;2024-01-15T13:36:57;3.60;1.00
10129;DHT22;5104;50.720;7.044;2024-01-15T13:39:24;3.50;99.90
10129;DHT22;5104;50.720;7.044;2024-01-15T13:41:51;3.50;1.00
10129;DHT22;5104;50.720;7.044;2024-01-15T13:44:18;3.50;1.00
10129;DHT22;5104;50.720;7.044;2024-01-15T13:46:46;3.40;1.00
10129;DHT22;5104;50.720;7.044;2024-01-15T13:49:13;3.30;1.00
10129;DHT22;5104;50.720;7.044;2024-01-15T13:51:40;3.40;1.00
10129;DHT22;5104;50.720;7.044;2024-01-15T13:54:07;3.40;1.00
10129;DHT22;5104;50.720;7.044;2024-01-15T13:56:35;3.40;1.00
10129;DHT22;5104;50.720;7.044;2024-01-15T13:59:02;3.50;1.00
10129;DHT22;5104;50.720;7.044;2024-01-15T14:01:31;3.50;1.00
10129;DHT22;5104;50.720;7.044;2024-01-15T14:04:00;3.40;1.00
10129;DHT22;5104;50.720;7.044;2024-01-15T14:06:27;3.50;1.00
10129;DHT22;5104;50.720;7.044;2024-01-15T14:08:54;3.30;1.00
10129;DHT22;5104;50.720;7.044;2024-01-15T14:11:21;3.30;1.00
10129;DHT22;5104;50.720;7.044;2024-01-15T14:13:49;3.10;99.90
10129;DHT22;5104;50.720;7.044;2024-01-15T14:16:16;3.00;99.90
10129;DHT22;5104;50.720;7.044;2024-01-15T14:18:43;2.90;1.00
10129;DHT22;5104;50.720;7.044;2024-01-15T14:21:11;2.80;1.00
10129;DHT22;5104;50.720;7.044;2024-01-15T14:23:38;2.80;1.00
10129;DHT22;5104;50.720;7.044;2024-01-15T14:26:06;2.70;1.00
10129;DHT22;5104;50.720;7.044;2024-01-15T14:28:33;2.60;99.90
10129;DHT22;5104;50.720;7.044;2024-01-15T14:31:00;2.60;99.90
10129;DHT22;5104;50.720;7.044;2024-01-15T14:33:27;2.60;99.90
10129;DHT22;5104;50.720;7.044;2024-01-15T14:35:54;2.50;1.00
10129;DHT22;5104;50.720;7.044;2024-01-15T14:38:23;2.50;1.00
10129;DHT22;5104;50.720;7.044;2024-01-15T14:40:50;2.50;1.00
10129;DHT22;5104;50.720;7.044;2024-01-15T14:43:17;2.50;1.00
10129;DHT22;5104;50.720;7.044;2024-01-15T14:45:45;2.50;1.00
10129;DHT22;5104;50.720;7.044;2024-01-15T14:48:12;2.40;1.00
10129;DHT22;5104;50.720;7.044;2024-01-15T14:50:39;2.50;99.90
10129;DHT22;5104;50.720;7.044;2024-01-15T14:53:06;2.40;99.90
10129;DHT22;5104;50.720;7.044;2024-01-15T14:55:35;2.40;99.90
10129;DHT22;5104;50.720;7.044;2024-01-15T14:58:02;2.30;99.90
10129;DHT22;5104;50.720;7.044;2024-01-15T15:00:30;2.30;1.00
10129;DHT22;5104;50.720;7.044;2024-01-15T15:02:57;2.20;99.90
10129;DHT22;5104;50.720;7.044;2024-01-15T15:05:24;2.10;1.00
10129;DHT22;5104;50.720;7.044;2024-01-15T15:07:52;2.10;99.90
10129;DHT22;5104;50.720;7.044;2024-01-15T15:10:19;2.10;1.00
10129;DHT22;5104;50.720;7.044;2024-01-15T15:12:48;2.00;1.00
10129;DHT22;5104;50.720;7.044;2024-01-15T15:15:15;2.00;1.00
10129;DHT22;5104;50.720;7.044;2024-01-15T15:17:43;2.00;99.90
10129;DHT22;5104;50.720;7.044;2024-01-15T15:20:11;2.10;99.90
10129;DHT22;5104;50.720;7.044;2024-01-15T15:22:38;2.10;1.00
10129;DHT22;5104;50.720;7.044;2024-01-15T15:25:05;2.10;1.00
10129;DHT22;5104;50.720;7.044;2024-01-15T15:27:34;2.10;1.00
10129;DHT22;5104;50.720;7.044;2024-01-15T15:30:04;2.10;1.00
10129;DHT22;5104;50.720;7.044;2024-01-15T15:32:32;2.10;1.00
10129;DHT22;5104;50.720;7.044;2024-01-15T15:34:59;2.10;1.00
10129;DHT22;5104;50.720;7.044;2024-01-15T15:37:26;2.10;1.00
10129;DHT22;5104;50.720;7.044;2024-01-15T15:39:56;2.00;1.00
10129;DHT22;5104;50.720;7.044;2024-01-15T15:42:24;2.00;1.00
10129;DHT22;5104;50.720;7.044;2024-01-15T15:44:51;1.90;99.90
10129;DHT22;5104;50.720;7.044;2024-01-15T15:47:21;1.90;1.00
10129;DHT22;5104;50.720;7.044;2024-01-15T15:49:49;1.90;99.90
10129;DHT22;5104;50.720;7.044;2024-01-15T15:52:15;1.90;1.00
10129;DHT22;5104;50.720;7.044;2024-01-15T15:54:43;1.90;69.90
10129;DHT22;5104;50.720;7.044;2024-01-15T15:57:10;1.90;1.00
10129;DHT22;5104;50.720;7.044;2024-01-15T15:59:37;1.90;1.00
10129;DHT22;5104;50.720;7.044;2024-01-15T16:02:04;1.80;99.90
10129;DHT22;5104;50.720;7.044;2024-01-15T16:04:33;1.80;99.90
10129;DHT22;5104;50.720;7.044;2024-01-15T16:07:00;1.80;1.00
10129;DHT22;5104;50.720;7.044;2024-01-15T16:09:28;1.70;1.00
10129;DHT22;5104;50.720;7.044;2024-01-15T16:11:56;1.80;74.70
10129;DHT22;5104;50.720;7.044;2024-01-15T16:14:23;1.70;1.00